Terminal Aerodrome Forecast
Issued by NWS

Home | Current Version | Previous Version | Text Only | Print | Product List | Glossary On
Versions: 1 2 3 4 5 6 7 8 9 10 11 12 13 14 15
000
FTPA31 PHFO 160541
TAFHLI
TAF
PHLI 160541Z 1606/1706 36012KT P6SM SCT025 SCT045
     FM161000 36010KT 6SM -SHRA BKN025 OVC045
     FM162000 34010KT P6SM VCSH SCT025 BKN045
     FM170400 03006KT P6SM VCSH SCT025 BKN045=

USA.gov is the U.S. government's official web portal to all federal, state and local government web resources and services.